Time;durP1;ratioP1;P1;durP2;ratioP2;P2;SDS_P1;SDS_P2;PMS_P1;PMS_P2;Temp;Humidity;BMP_temperature;BMP_pressure;BME280_temperature;BME280_humidity;BME280_pressure;Samples;Min_cycle;Max_cycle;Signal;HPM_P1;HPM_P2
2022/11/27 00:00:16;;;;;;;0.60;0.60;;;;;;;2.18;94.85;98078.91;29373;343;63005;-59
2022/11/27 00:00:47;;;;;;;0.52;0.52;;;;;;;2.19;94.78;98074.38;29373;286;63009;-58
2022/11/27 00:01:22;;;;;;;0.60;0.60;;;;;;;2.14;94.49;98069.66;29373;230;63005;-58
2022/11/27 00:01:53;;;;;;;0.60;0.60;;;;;;;2.11;94.42;98066.56;29394;214;64013;-58
2022/11/27 00:02:25;;;;;;;0.70;0.70;;;;;;;2.13;94.87;98061.81;29373;204;63004;-58
2022/11/27 00:02:56;;;;;;;0.60;0.60;;;;;;;2.16;94.85;98074.78;29373;210;63009;-59
2022/11/27 00:03:27;;;;;;;0.60;0.60;;;;;;;2.16;95.06;98064.09;29372;240;64004;-59
2022/11/27 00:04:02;;;;;;;0.50;0.50;;;;;;;2.16;94.69;98064.09;29371;238;64013;-58
2022/11/27 00:04:33;;;;;;;0.60;0.60;;;;;;;2.14;95.03;98061.62;29373;239;63004;-58
2022/11/27 00:05:06;;;;;;;0.60;0.60;;;;;;;2.16;94.84;98061.41;29373;222;63008;-58
2022/11/27 00:05:37;;;;;;;0.68;0.68;;;;;;;2.16;94.71;98058.72;29373;249;63010;-57
2022/11/27 00:06:14;;;;;;;0.70;0.70;;;;;;;2.15;94.53;98063.25;29372;243;64009;-58
2022/11/27 00:06:46;;;;;;;0.50;0.50;;;;;;;2.16;94.19;98059.56;29373;269;63005;-78
2022/11/27 00:07:17;;;;;;;0.60;0.60;;;;;;;2.18;94.21;98062.00;29371;224;64013;-59
2022/11/27 00:07:48;;;;;;;0.60;0.60;;;;;;;2.18;94.46;98062.84;29373;247;63005;-58
2022/11/27 00:08:21;;;;;;;0.60;0.60;;;;;;;2.17;94.31;98055.03;29373;299;63009;-58
2022/11/27 00:08:55;;;;;;;0.60;0.60;;;;;;;2.17;94.37;98055.03;29373;197;63005;-58
2022/11/27 00:09:26;;;;;;;5.78;3.35;;;;;;;2.18;94.48;98062.00;29373;212;63009;-60
2022/11/27 00:09:58;;;;;;;0.60;0.60;;;;;;;2.18;94.42;98051.31;29373;274;63004;-58
2022/11/27 00:10:29;;;;;;;0.60;0.60;;;;;;;2.24;93.95;98058.50;29395;217;63009;-59
2022/11/27 00:11:09;;;;;;;0.50;0.50;;;;;;;2.24;93.80;98058.50;29373;239;63004;-58
2022/11/27 00:11:42;;;;;;;0.55;0.55;;;;;;;2.23;93.39;98056.84;29395;302;63008;-59
2022/11/27 00:12:14;;;;;;;0.60;0.60;;;;;;;2.20;93.67;98055.41;29394;223;64008;-59
2022/11/27 00:12:45;;;;;;;0.50;0.50;;;;;;;2.18;93.55;98057.47;29395;198;63009;-57
2022/11/27 00:13:16;;;;;;;0.60;0.60;;;;;;;2.16;93.95;98056.06;29373;302;63005;-59
2022/11/27 00:13:49;;;;;;;0.60;0.60;;;;;;;2.15;93.87;98059.75;29373;203;63009;-59
2022/11/27 00:14:20;;;;;;;0.50;0.50;;;;;;;2.14;94.31;98050.91;29373;233;63005;-59
2022/11/27 00:14:51;;;;;;;8.07;7.53;;;;;;;2.15;94.34;98051.72;29372;219;64009;-58
2022/11/27 00:15:23;;;;;;;0.60;0.60;;;;;;;2.16;94.06;98061.41;29371;223;64009;-76
2022/11/27 00:15:56;;;;;;;0.60;0.60;;;;;;;2.17;93.92;98060.38;29394;241;64013;-58
2022/11/27 00:16:28;;;;;;;0.60;0.60;;;;;;;2.19;93.82;98055.63;29373;312;63000;-57
2022/11/27 00:17:00;;;;;;;0.62;0.62;;;;;;;2.18;93.69;98068.19;29373;202;63009;-59
2022/11/27 00:17:32;;;;;;;0.60;0.60;;;;;;;2.18;93.76;98048.63;29395;245;63004;-58
2022/11/27 00:18:03;;;;;;;0.60;0.60;;;;;;;2.19;93.24;98055.63;29373;238;63009;-58
2022/11/27 00:18:35;;;;;;;0.60;0.60;;;;;;;2.17;93.58;98049.66;29373;196;63004;-58
2022/11/27 00:19:07;;;;;;;0.60;0.60;;;;;;;2.18;93.45;98051.31;29373;224;63009;-75
2022/11/27 00:19:38;;;;;;;0.50;0.50;;;;;;;2.15;93.76;98051.72;29373;283;63004;-59
2022/11/27 00:20:10;;;;;;;0.52;0.52;;;;;;;2.16;93.61;98053.38;29373;242;63009;-58
2022/11/27 00:20:41;;;;;;;0.60;0.60;;;;;;;2.16;93.82;98053.38;29373;258;63005;-58
2022/11/27 00:21:15;;;;;;;1.12;1.12;;;;;;;2.17;93.78;98055.03;29372;199;64014;-59
2022/11/27 00:21:46;;;;;;;0.60;0.60;;;;;;;2.17;93.49;98049.66;29373;199;63015;-76
2022/11/27 00:22:17;;;;;;;0.60;0.60;;;;;;;2.17;93.51;98055.03;29371;274;64013;-58
2022/11/27 00:22:49;;;;;;;1.77;1.70;;;;;;;2.16;93.26;98050.69;29373;199;63005;-59
2022/11/27 00:23:20;;;;;;;0.62;0.62;;;;;;;2.17;93.34;98055.03;29373;212;63009;-57
2022/11/27 00:23:52;;;;;;;0.60;0.60;;;;;;;2.16;93.50;98048.84;29395;230;63005;-58
2022/11/27 00:24:24;;;;;;;0.60;0.60;;;;;;;2.13;93.44;98049.25;29373;212;63009;-58
2022/11/27 00:24:55;;;;;;;1.52;1.52;;;;;;;2.20;93.06;98044.72;29395;222;63004;-58
2022/11/27 00:25:26;;;;;;;0.60;0.60;;;;;;;2.21;92.70;98045.53;29395;235;63009;-57
2022/11/27 00:25:58;;;;;;;1.12;1.12;;;;;;;2.21;92.98;98048.22;29395;204;63004;-58
2022/11/27 00:26:31;;;;;;;1.98;1.87;;;;;;;2.20;93.08;98043.88;29395;242;63009;-77
2022/11/27 00:27:02;;;;;;;0.70;0.70;;;;;;;2.18;93.20;98041.41;29394;204;64008;-58
2022/11/27 00:27:33;;;;;;;2.08;1.77;;;;;;;2.19;93.00;98042.25;29395;222;63008;-58
2022/11/27 00:28:04;;;;;;;0.60;0.60;;;;;;;2.16;92.97;98037.31;29395;246;63005;-58
2022/11/27 00:28:36;;;;;;;0.68;0.68;;;;;;;2.16;92.95;98037.31;29395;199;63009;-57
2022/11/27 00:29:09;;;;;;;0.60;0.60;;;;;;;2.11;92.84;98034.44;29395;206;63011;-59
2022/11/27 00:29:41;;;;;;;1.90;1.80;;;;;;;2.13;93.05;98037.72;29395;248;63009;-58
2022/11/27 00:30:14;;;;;;;0.60;0.60;;;;;;;2.13;93.06;98037.72;29394;212;64005;-58
2022/11/27 00:30:46;;;;;;;0.60;0.60;;;;;;;2.11;92.84;98035.25;29373;210;63009;-60
2022/11/27 00:31:27;;;;;;;0.60;0.60;;;;;;;2.14;93.03;98034.00;29395;206;63005;-59
2022/11/27 00:31:58;;;;;;;;;;;;;;;2.15;93.03;98032.97;29996;983;6004;-59
2022/11/27 00:32:29;;;;;;;0.60;0.60;;;;;;;2.16;92.79;98031.94;29421;327;64013;-74
2022/11/27 00:33:03;;;;;;;0.60;0.60;;;;;;;2.18;92.72;98029.88;29395;274;63000;-57
2022/11/27 00:33:36;;;;;;;0.60;0.60;;;;;;;2.16;92.60;98037.31;29371;283;64013;-58
2022/11/27 00:34:09;;;;;;;0.50;0.50;;;;;;;2.17;92.70;98030.91;29373;288;63004;-76
2022/11/27 00:34:40;;;;;;;0.60;0.60;;;;;;;2.18;92.63;98024.53;29373;262;63008;-58
2022/11/27 00:35:12;;;;;;;0.70;0.70;;;;;;;2.17;92.62;98038.94;29371;209;64009;-58
2022/11/27 00:35:44;;;;;;;0.60;0.60;;;;;;;2.15;93.04;98035.66;29373;225;63009;-58
2022/11/27 00:36:16;;;;;;;0.60;0.60;;;;;;;2.19;92.92;98032.34;29373;262;63015;-58
2022/11/27 00:36:47;;;;;;;0.52;0.52;;;;;;;2.18;92.58;98035.25;29373;295;63009;-59
2022/11/27 00:37:18;;;;;;;0.70;0.70;;;;;;;2.15;92.33;98035.66;29372;286;63005;-58
2022/11/27 00:37:49;;;;;;;0.60;0.60;;;;;;;2.14;92.39;98034.00;29373;208;63009;-58
2022/11/27 00:38:21;;;;;;;0.60;0.60;;;;;;;2.14;92.40;98024.12;29373;338;63005;-59
2022/11/27 00:38:52;;;;;;;3.72;2.58;;;;;;;2.13;92.68;98030.50;29373;214;63009;-59
2022/11/27 00:39:24;;;;;;;0.60;0.60;;;;;;;2.13;92.70;98027.84;29373;220;63004;-58
2022/11/27 00:39:55;;;;;;;0.70;0.70;;;;;;;2.15;92.58;98024.94;29373;228;63009;-75
2022/11/27 00:40:26;;;;;;;0.60;0.60;;;;;;;2.13;92.55;98021.66;29371;214;64009;-73
2022/11/27 00:41:04;;;;;;;0.60;0.60;;;;;;;2.14;92.59;98025.97;29373;302;63009;-74
2022/11/27 00:41:36;;;;;;;0.60;0.60;;;;;;;2.14;92.50;98023.31;29373;240;63009;-58
2022/11/27 00:42:08;;;;;;;1.70;1.70;;;;;;;2.15;92.68;98022.28;29373;240;63016;-59
2022/11/27 00:42:39;;;;;;;0.60;0.60;;;;;;;2.18;91.91;98013.81;29373;246;63004;-59
2022/11/27 00:43:10;;;;;;;0.60;0.60;;;;;;;2.17;91.80;98014.84;29373;209;63027;-57
2022/11/27 00:43:42;;;;;;;0.60;0.60;;;;;;;2.14;92.03;98013.41;29373;252;63005;-60
2022/11/27 00:44:14;;;;;;;0.60;0.60;;;;;;;2.13;92.44;98011.78;29395;324;63009;-59
2022/11/27 00:44:45;;;;;;;1.00;1.00;;;;;;;2.13;92.24;98010.94;29373;282;63005;-58
2022/11/27 00:45:17;;;;;;;0.60;0.60;;;;;;;2.16;92.17;98010.53;29372;203;63009;-59
2022/11/27 00:45:49;;;;;;;0.70;0.70;;;;;;;2.16;91.66;98008.69;29371;310;64009;-60
2022/11/27 00:46:23;;;;;;;0.70;0.70;;;;;;;2.14;91.74;98012.59;29373;276;63009;-58
2022/11/27 00:46:54;;;;;;;0.70;0.70;;;;;;;2.10;91.57;98011.37;29373;264;63004;-58
2022/11/27 00:47:25;;;;;;;0.60;0.60;;;;;;;2.04;91.70;98005.03;29373;218;63009;-58
2022/11/27 00:47:56;;;;;;;0.70;0.70;;;;;;;2.03;91.93;98013.28;29373;197;63004;-59
2022/11/27 00:48:28;;;;;;;0.60;0.60;;;;;;;2.04;92.10;98004.22;29373;216;63009;-58
2022/11/27 00:49:02;;;;;;;0.50;0.50;;;;;;;2.05;92.08;98005.84;29371;284;64009;-60
2022/11/27 00:49:33;;;;;;;0.70;0.70;;;;;;;2.08;92.13;98008.12;29373;221;63008;-58
2022/11/27 00:50:06;;;;;;;0.88;0.88;;;;;;;2.14;91.54;98007.25;29373;198;63004;-59
2022/11/27 00:50:38;;;;;;;0.50;0.50;;;;;;;2.13;91.36;98005.59;29373;278;63009;-59
2022/11/27 00:51:12;;;;;;;0.70;0.70;;;;;;;2.14;91.28;97997.34;29373;202;63009;-59
2022/11/27 00:51:43;;;;;;;1.10;1.10;;;;;;;2.15;91.42;98004.34;29373;197;63009;-58
2022/11/27 00:52:15;;;;;;;0.60;0.60;;;;;;;2.10;91.36;98003.34;29373;197;63005;-77
2022/11/27 00:52:47;;;;;;;1.00;1.00;;;;;;;2.11;91.09;98007.66;29373;196;63009;-58
2022/11/27 00:53:18;;;;;;;0.60;0.60;;;;;;;2.08;91.04;98003.56;29373;221;63005;-58
2022/11/27 00:53:53;;;;;;;1.37;1.37;;;;;;;2.07;91.29;98006.47;29373;223;63009;-59
2022/11/27 00:54:24;;;;;;;4.78;4.55;;;;;;;2.07;91.71;97995.75;29371;202;64009;-58
2022/11/27 00:54:56;;;;;;;1.17;1.17;;;;;;;2.03;91.61;98002.56;29395;202;63009;-59
2022/11/27 00:55:27;;;;;;;0.60;0.60;;;;;;;2.03;91.46;98000.72;29373;220;63004;-58
2022/11/27 00:55:59;;;;;;;0.60;0.60;;;;;;;2.03;91.53;97995.34;29373;277;63009;-57
2022/11/27 00:56:34;;;;;;;0.60;0.60;;;;;;;2.07;91.46;97999.25;29371;245;64009;-59
2022/11/27 00:57:05;;;;;;;1.05;1.05;;;;;;;2.05;91.43;97997.81;29373;276;63008;-74
2022/11/27 00:57:37;;;;;;;0.60;0.60;;;;;;;2.05;91.90;97992.47;29373;218;63004;-59
2022/11/27 00:58:08;;;;;;;0.62;0.62;;;;;;;2.01;91.97;97997.41;29373;339;63009;-72
2022/11/27 00:58:40;;;;;;;0.60;0.60;;;;;;;1.94;92.04;98000.12;29373;337;63005;-76
2022/11/27 00:59:11;;;;;;;0.60;0.60;;;;;;;1.90;92.55;98000.75;29373;318;63009;-59
2022/11/27 00:59:42;;;;;;;0.70;0.70;;;;;;;1.90;92.49;97995.38;29373;197;63005;-58
2022/11/27 01:00:15;;;;;;;0.60;0.60;;;;;;;1.87;92.64;98001.97;29373;283;63009;-58
2022/11/27 01:00:53;;;;;;;0.70;0.70;;;;;;;1.89;92.66;97997.25;29373;316;63005;-58
2022/11/27 01:01:28;;;;;;;0.70;0.70;;;;;;;1.94;92.47;97992.09;29373;353;63015;-70
2022/11/27 01:01:59;;;;;;;0.60;0.60;;;;;;;1.96;92.21;97990.03;29371;236;64009;-58
2022/11/27 01:02:32;;;;;;;0.70;0.70;;;;;;;1.98;92.39;97982.59;29373;265;63009;-75
2022/11/27 01:03:03;;;;;;;9.68;8.98;;;;;;;2.02;91.84;97988.34;29369;208;65010;-58
2022/11/27 01:03:35;;;;;;;0.60;0.60;;;;;;;2.00;91.29;97991.25;29373;272;63009;-58
2022/11/27 01:04:14;;;;;;;0.60;0.60;;;;;;;1.97;91.25;97986.31;29373;262;63004;-58
2022/11/27 01:04:47;;;;;;;0.73;0.73;;;;;;;1.98;91.81;97982.59;29373;201;63008;-58
2022/11/27 01:05:18;;;;;;;0.70;0.70;;;;;;;1.96;91.56;97983.84;29373;385;63010;-58
2022/11/27 01:05:51;;;;;;;0.60;0.60;;;;;;;1.93;91.58;97985.09;29373;320;63009;-58
2022/11/27 01:06:25;;;;;;;0.68;0.68;;;;;;;1.91;91.73;97980.97;29373;212;63016;-59
2022/11/27 01:06:57;;;;;;;0.65;0.65;;;;;;;1.89;91.97;97978.50;29373;302;63015;-60
2022/11/27 01:07:28;;;;;;;0.60;0.60;;;;;;;1.88;92.30;97982.22;29371;261;64009;-58
2022/11/27 01:07:59;;;;;;;0.60;0.60;;;;;;;1.88;92.77;97976.88;29373;247;63009;-72
2022/11/27 01:08:33;;;;;;;0.68;0.68;;;;;;;1.86;92.41;97978.09;29373;258;63005;-59
2022/11/27 01:09:05;;;;;;;0.60;0.60;;;;;;;1.82;92.91;97977.69;29373;207;63009;-58
2022/11/27 01:09:36;;;;;;;0.62;0.62;;;;;;;1.79;93.09;97983.47;29373;235;63016;-58
2022/11/27 01:10:08;;;;;;;0.60;0.60;;;;;;;1.74;93.32;97985.94;29372;241;64009;-58
2022/11/27 01:10:46;;;;;;;0.68;0.68;;;;;;;1.72;93.29;97982.69;29373;234;63008;-59
2022/11/27 01:11:21;;;;;;;0.60;0.60;;;;;;;1.74;93.62;97977.94;29373;204;63008;-60
2022/11/27 01:11:52;;;;;;;0.65;0.65;;;;;;;1.70;93.56;97989.28;29373;280;63004;-58
2022/11/27 01:12:24;;;;;;;0.60;0.60;;;;;;;1.74;93.65;97975.25;29373;291;63008;-58
2022/11/27 01:12:55;;;;;;;0.60;0.60;;;;;;;1.75;93.65;97982.25;29371;210;64009;-58
2022/11/27 01:13:30;;;;;;;0.60;0.60;;;;;;;1.77;93.46;97984.72;29372;296;63009;-75
2022/11/27 01:14:08;;;;;;;0.85;0.85;;;;;;;1.76;93.44;97991.09;29373;255;63005;-57
2022/11/27 01:14:39;;;;;;;0.60;0.60;;;;;;;1.72;93.60;97982.69;29371;224;64013;-73
2022/11/27 01:15:11;;;;;;;0.62;0.62;;;;;;;1.72;93.82;97982.69;29373;197;63005;-58
2022/11/27 01:15:42;;;;;;;0.60;0.60;;;;;;;1.74;94.08;97975.25;29371;357;64013;-58
2022/11/27 01:16:16;;;;;;;0.70;0.70;;;;;;;1.74;93.89;97980.59;29373;330;63019;-58
2022/11/27 01:16:48;;;;;;;0.60;0.60;;;;;;;1.75;93.77;97981.41;29371;246;64013;-58
2022/11/27 01:17:22;;;;;;;5.47;5.28;;;;;;;1.73;93.55;97978.16;29373;275;63004;-58
2022/11/27 01:17:53;;;;;;;0.70;0.70;;;;;;;1.71;93.94;97975.69;29373;393;63009;-57
2022/11/27 01:18:24;;;;;;;0.60;0.60;;;;;;;1.68;94.09;97973.44;29373;258;63004;-58
2022/11/27 01:18:57;;;;;;;0.60;0.60;;;;;;;1.69;94.00;97980.44;29373;392;63008;-57
2022/11/27 01:19:29;;;;;;;0.68;0.68;;;;;;;1.69;94.02;97972.41;29371;272;64008;-60
2022/11/27 01:20:00;;;;;;;0.70;0.70;;;;;;;1.68;93.87;97978.78;29373;263;63009;-58
2022/11/27 01:20:31;;;;;;;0.60;0.60;;;;;;;1.70;94.01;97974.06;29373;247;63005;-58
2022/11/27 01:21:04;;;;;;;1.45;1.45;;;;;;;1.72;94.20;97971.16;29373;238;63009;-78
2022/11/27 01:21:35;;;;;;;0.60;0.60;;;;;;;1.73;93.94;97968.28;29373;299;63005;-58
2022/11/27 01:22:06;;;;;;;0.60;0.60;;;;;;;1.73;93.91;97965.59;29373;230;63009;-57
2022/11/27 01:22:38;;;;;;;0.55;0.55;;;;;;;1.76;94.15;97973.19;29373;200;63005;-74
2022/11/27 01:23:09;;;;;;;0.60;0.60;;;;;;;1.74;93.67;97967.22;29373;284;63009;-58
2022/11/27 01:23:40;;;;;;;0.60;0.60;;;;;;;1.71;93.42;97965.00;29373;389;63005;-59
2022/11/27 01:24:13;;;;;;;0.60;0.60;;;;;;;1.77;93.61;97968.66;29373;242;63013;-58
2022/11/27 01:24:45;;;;;;;0.60;0.60;;;;;;;1.77;93.21;97969.47;29371;289;64009;-58
2022/11/27 01:25:18;;;;;;;0.70;0.70;;;;;;;1.80;93.41;97957.53;29373;202;63009;-59
2022/11/27 01:25:52;;;;;;;0.60;0.60;;;;;;;1.80;93.26;97961.03;29373;197;63004;-58
2022/11/27 01:26:24;;;;;;;1.02;1.02;;;;;;;1.78;92.83;97960.41;29373;294;63008;-74
2022/11/27 01:26:55;;;;;;;1.62;1.62;;;;;;;1.77;93.27;97971.34;29373;329;63004;-57
2022/11/27 01:27:27;;;;;;;0.60;0.60;;;;;;;1.76;93.34;97961.66;29373;207;63017;-58
2022/11/27 01:27:58;;;;;;;2.35;2.25;;;;;;;1.76;93.23;97973.19;29373;219;63005;-58
2022/11/27 01:28:31;;;;;;;0.60;0.60;;;;;;;1.77;93.03;97964.13;29373;247;63009;-74
2022/11/27 01:29:02;;;;;;;0.70;0.70;;;;;;;1.81;92.79;97968.03;29373;296;63005;-59
2022/11/27 01:29:34;;;;;;;0.60;0.60;;;;;;;1.82;92.55;97961.66;29373;315;63025;-57
2022/11/27 01:30:07;;;;;;;0.73;0.73;;;;;;;1.87;92.25;97969.03;29371;378;64009;-58
2022/11/27 01:30:38;;;;;;;0.60;0.60;;;;;;;1.85;92.34;97963.91;29373;369;63025;-58
2022/11/27 01:31:16;;;;;;;1.27;1.17;;;;;;;1.88;91.78;97960.81;29373;320;63005;-58
2022/11/27 01:31:48;;;;;;;0.70;0.70;;;;;;;1.84;91.66;97964.94;29373;264;63009;-58
2022/11/27 01:32:19;;;;;;;0.50;0.50;;;;;;;1.81;91.98;97960.00;29373;233;63004;-57
2022/11/27 01:32:50;;;;;;;0.65;0.65;;;;;;;1.77;92.38;97956.09;29373;204;63009;-76
2022/11/27 01:33:27;;;;;;;0.60;0.60;;;;;;;1.67;92.17;97967.25;29373;223;63004;-75
2022/11/27 01:34:04;;;;;;;0.60;0.60;;;;;;;1.69;92.88;97961.72;29373;335;63008;-58
2022/11/27 01:34:35;;;;;;;5.87;3.45;;;;;;;1.71;92.75;97965.00;29373;299;63009;-59
2022/11/27 01:35:08;;;;;;;0.70;0.70;;;;;;;1.72;92.94;97958.63;29371;213;64014;-58
2022/11/27 01:35:39;;;;;;;0.90;0.85;;;;;;;1.75;92.65;97963.50;29373;202;63005;-71
2022/11/27 01:36:13;;;;;;;0.70;0.70;;;;;;;1.72;92.77;97965.81;29373;202;63009;-58
2022/11/27 01:36:44;;;;;;;0.60;0.60;;;;;;;1.69;92.45;97964.38;29373;197;63005;-58
2022/11/27 01:37:15;;;;;;;0.60;0.60;;;;;;;1.67;92.99;97959.25;29373;197;63009;-58
2022/11/27 01:37:46;;;;;;;0.60;0.60;;;;;;;1.67;93.01;97959.25;29373;268;63005;-58
2022/11/27 01:38:18;;;;;;;0.60;0.60;;;;;;;1.69;93.30;97967.06;29395;207;63009;-58
2022/11/27 01:38:50;;;;;;;0.65;0.65;;;;;;;1.67;92.69;97961.09;29395;228;63005;-59
2022/11/27 01:39:23;;;;;;;0.60;0.60;;;;;;;1.64;92.83;97959.66;29373;198;63018;-58
2022/11/27 01:39:54;;;;;;;0.60;0.60;;;;;;;1.63;92.71;97963.38;29371;336;64009;-58
2022/11/27 01:40:25;;;;;;;0.60;0.60;;;;;;;1.61;92.73;97961.94;29373;243;63009;-58
2022/11/27 01:41:26;;;;;;;0.57;0.57;;;;;;;1.55;92.97;97957.41;29395;222;63004;-58
2022/11/27 01:41:57;;;;;;;0.60;0.60;;;;;;;1.52;92.99;97960.50;29394;215;64013;-57
2022/11/27 01:42:28;;;;;;;0.60;0.60;;;;;;;1.54;92.83;97958.44;29373;323;63009;-58
2022/11/27 01:43:00;;;;;;;0.60;0.60;;;;;;;1.51;92.86;97954.31;29395;287;63009;-57
2022/11/27 01:44:01;;;;;;;0.95;0.95;;;;;;;1.46;93.03;97954.12;29373;248;63005;-57
2022/11/27 01:44:51;;;;;;;0.80;0.80;;;;;;;1.44;93.32;97948.16;29353;341;126013;-58
2022/11/27 01:45:23;;;;;;;0.60;0.60;;;;;;;1.43;94.05;97956.41;29395;325;63005;-60
2022/11/27 01:45:54;;;;;;;0.50;0.50;;;;;;;1.42;93.77;97950.22;29372;202;64009;-57
2022/11/27 01:46:37;;;;;;;0.60;0.60;;;;;;;1.40;93.95;97940.75;29373;312;63005;-59
2022/11/27 01:47:15;;;;;;;0.60;0.60;;;;;;;1.39;94.44;97945.28;29371;343;64013;-58
2022/11/27 01:47:59;;;;;;;0.60;0.60;;;;;;;1.41;94.19;97942.41;29373;290;63004;-58
2022/11/27 01:48:31;;;;;;;0.60;0.60;;;;;;;1.42;94.30;97944.06;29374;348;63009;-57
2022/11/27 01:49:31;;;;;;;0.70;0.70;;;;;;;1.40;94.10;97948.78;29373;216;63004;-58
2022/11/27 01:50:08;;;;;;;0.55;0.55;;;;;;;1.40;94.18;97940.75;29373;286;63020;-59
2022/11/27 01:50:40;;;;;;;0.60;0.60;;;;;;;1.37;94.24;97947.38;29373;198;63005;-58
2022/11/27 01:51:12;;;;;;;0.62;0.62;;;;;;;1.38;94.40;97942.84;29373;202;63009;-77
2022/11/27 01:51:53;;;;;;;0.60;0.60;;;;;;;1.39;94.28;97944.50;29373;271;63005;-59
2022/11/27 01:52:34;;;;;;;0.60;0.60;;;;;;;1.38;94.52;97942.84;29371;313;64013;-57
2022/11/27 01:53:14;;;;;;;0.60;0.60;;;;;;;1.46;93.86;97939.94;29395;250;63005;-57
2022/11/27 01:53:46;;;;;;;0.70;0.70;;;;;;;1.49;93.60;97945.69;29395;325;63009;-58
2022/11/27 01:54:20;;;;;;;0.95;0.95;;;;;;;1.49;93.61;97939.50;29373;208;63013;-58
2022/11/27 01:55:20;;;;;;;0.60;0.60;;;;;;;1.43;93.20;97941.16;29372;281;63009;-57
2022/11/27 01:55:58;;;;;;;0.55;0.55;;;;;;;1.40;93.66;97943.44;29371;260;64009;-59
2022/11/27 01:56:29;;;;;;;0.70;0.70;;;;;;;1.38;93.57;97937.50;29373;258;63009;-59
2022/11/27 01:57:11;;;;;;;0.60;0.60;;;;;;;1.45;92.96;97936.44;29371;375;64008;-58
2022/11/27 01:57:46;;;;;;;0.68;0.68;;;;;;;1.44;92.53;97937.47;29373;206;63009;-59
2022/11/27 01:58:24;;;;;;;0.70;0.70;;;;;;;1.43;92.79;97935.00;29373;216;63005;-58
2022/11/27 01:58:58;;;;;;;0.70;0.70;;;;;;;1.40;93.21;97930.88;29373;351;63009;-58
2022/11/27 01:59:30;;;;;;;0.60;0.60;;;;;;;1.40;93.28;97935.41;29373;232;63007;-57
2022/11/27 02:00:04;;;;;;;0.60;0.60;;;;;;;1.37;93.49;97930.50;29371;202;64013;-59
2022/11/27 02:00:37;;;;;;;2.08;2.00;;;;;;;1.34;93.18;97940.59;29373;346;63005;-58
2022/11/27 02:01:09;;;;;;;0.60;0.60;;;;;;;1.30;93.37;97933.19;29373;320;63023;-58
2022/11/27 02:01:41;;;;;;;0.68;0.68;;;;;;;1.32;93.37;97939.16;29373;277;63004;-59
2022/11/27 02:02:12;;;;;;;0.60;0.60;;;;;;;1.31;93.62;97941.00;29373;204;63009;-58
2022/11/27 02:02:44;;;;;;;0.60;0.60;;;;;;;1.29;93.27;97939.56;29373;324;63004;-73
2022/11/27 02:03:16;;;;;;;0.60;0.60;;;;;;;1.28;93.60;97944.09;29373;363;63009;-58
2022/11/27 02:03:48;;;;;;;0.60;0.60;;;;;;;1.29;93.71;97944.91;29373;277;63004;-58
2022/11/27 02:04:19;;;;;;;0.90;0.90;;;;;;;1.29;93.83;97943.06;29373;202;63020;-59
2022/11/27 02:04:52;;;;;;;0.60;0.60;;;;;;;1.28;93.70;97936.06;29373;263;63004;-58
2022/11/27 02:05:27;;;;;;;0.60;0.60;;;;;;;1.28;93.62;97941.41;29371;235;64014;-58
2022/11/27 02:05:58;;;;;;;0.62;0.62;;;;;;;1.31;93.91;97943.69;29373;221;63008;-70
2022/11/27 02:06:34;;;;;;;0.60;0.60;;;;;;;1.37;93.57;97941.22;29373;362;63009;-58
2022/11/27 02:07:06;;;;;;;0.82;0.82;;;;;;;1.39;93.29;97941.81;29373;293;63005;-58
2022/11/27 02:07:37;;;;;;;0.62;0.62;;;;;;;1.44;92.96;97936.66;29373;232;63009;-58
2022/11/27 02:08:13;;;;;;;0.52;0.52;;;;;;;1.45;92.23;97935.63;29373;313;63005;-58
2022/11/27 02:08:45;;;;;;;0.80;0.80;;;;;;;1.41;92.37;97935.22;29371;307;64013;-57
2022/11/27 02:09:16;;;;;;;1.12;1.12;;;;;;;1.41;92.73;97932.53;29373;257;63004;-57
2022/11/27 02:09:48;;;;;;;1.23;1.23;;;;;;;1.40;93.17;97941.59;29373;342;63009;-58
2022/11/27 02:10:20;;;;;;;0.60;0.60;;;;;;;1.41;92.94;97935.22;29373;285;63004;-58
2022/11/27 02:11:05;;;;;;;1.65;1.62;;;;;;;1.37;93.02;97935.87;29373;259;63009;-58
2022/11/27 02:11:55;;;;;;;0.70;0.70;;;;;;;1.40;92.87;97940.75;29371;270;64008;-76
2022/11/27 02:12:42;;;;;;;1.40;1.30;;;;;;;1.41;92.44;97932.53;29373;295;63008;-57
2022/11/27 02:13:36;;;;;;;0.60;0.60;;;;;;;1.38;92.37;97929.47;29373;199;63005;-58
2022/11/27 02:14:47;;;;;;;0.70;0.70;;;;;;;1.36;92.78;97931.53;29373;295;63009;-59
2022/11/27 02:16:07;;;;;;;0.52;0.52;;;;;;;1.31;92.90;97927.63;29371;228;64009;-58
2022/11/27 02:17:04;;;;;;;0.80;0.80;;;;;;;1.30;92.70;97936.69;29371;330;64013;-57
2022/11/27 02:17:48;;;;;;;0.60;0.60;;;;;;;1.28;92.79;97928.06;29373;211;63009;-59
2022/11/27 02:18:47;;;;;;;0.65;0.65;;;;;;;1.27;93.12;97934.44;29373;290;63008;-59
2022/11/27 02:19:39;;;;;;;0.60;0.60;;;;;;;1.26;93.40;97934.63;29373;251;63005;-58
2022/11/27 02:20:34;;;;;;;0.60;0.60;;;;;;;1.26;93.54;97926.63;29373;270;63009;-58
2022/11/27 02:21:55;;;;;;;0.60;0.60;;;;;;;1.24;93.79;97926.00;29371;297;64000;-57
2022/11/27 02:23:21;;;;;;;15.68;14.70;;;;;;;1.27;93.89;97923.75;29361;255;66013;-58
2022/11/27 02:24:23;;;;;;;0.70;0.70;;;;;;;1.27;93.73;97918.38;29371;286;64009;-58
2022/11/27 02:25:33;;;;;;;0.73;0.73;;;;;;;1.33;93.53;97924.75;29373;209;63009;-58
2022/11/27 02:26:37;;;;;;;0.57;0.57;;;;;;;1.39;93.22;97917.75;29373;202;63004;-76
2022/11/27 02:27:32;;;;;;;0.70;0.70;;;;;;;1.39;93.04;97923.09;29373;326;63009;-57
2022/11/27 02:28:48;;;;;;;0.60;0.60;;;;;;;1.38;93.46;97921.47;29373;220;63005;-58
2022/11/27 02:29:23;;;;;;;0.60;0.60;;;;;;;1.39;93.28;97923.91;29371;212;64013;-57
2022/11/27 02:29:59;;;;;;;1.12;1.08;;;;;;;1.40;93.48;97919.38;29373;211;63017;-57
2022/11/27 02:30:35;;;;;;;0.98;0.98;;;;;;;1.38;93.25;97919.59;29371;370;64013;-59
2022/11/27 02:31:19;;;;;;;0.60;0.60;;;;;;;1.35;93.10;97922.69;29373;290;63004;-57
2022/11/27 02:32:07;;;;;;;0.68;0.68;;;;;;;1.36;93.00;97915.50;29373;259;63009;-58
2022/11/27 02:33:03;;;;;;;0.60;0.60;;;;;;;1.38;92.90;97919.59;29373;202;63015;-57
2022/11/27 02:33:41;;;;;;;0.52;0.52;;;;;;;1.37;93.10;97922.50;29371;196;64013;-58
2022/11/27 02:34:42;;;;;;;0.60;0.60;;;;;;;1.32;93.63;97923.94;29373;233;63004;-58
2022/11/27 02:35:31;;;;;;;0.70;0.70;;;;;;;1.34;93.43;97924.56;29395;202;63018;-59
2022/11/27 02:36:13;;;;;;;0.90;0.90;;;;;;;1.36;93.46;97926.19;29373;220;63000;-57
2022/11/27 02:36:52;;;;;;;0.70;0.70;;;;;;;1.36;93.42;97928.87;29373;328;63005;-57
2022/11/27 02:37:35;;;;;;;0.62;0.62;;;;;;;1.32;93.47;97934.63;29373;305;63000;-58
2022/11/27 02:38:16;;;;;;;0.70;0.70;;;;;;;1.30;93.64;97926.00;29372;199;63005;-57
2022/11/27 02:38:54;;;;;;;0.60;0.60;;;;;;;1.32;93.96;97923.94;29371;356;64009;-58
2022/11/27 02:39:35;;;;;;;0.93;0.93;;;;;;;1.31;93.90;97927.63;29373;217;63009;-57
2022/11/27 02:40:32;;;;;;;0.70;0.70;;;;;;;1.38;93.74;97919.59;29395;305;63004;-58
2022/11/27 02:41:23;;;;;;;0.70;0.70;;;;;;;1.39;93.33;97925.78;29395;330;63008;-58
2022/11/27 02:42:11;;;;;;;0.60;0.60;;;;;;;1.40;93.34;97917.53;29393;208;64009;-59
2022/11/27 02:43:53;;;;;;;0.64;0.64;;;;;;;1.37;93.17;97915.28;88174;218;64005;-57
2022/11/27 02:44:30;;;;;;;0.70;0.70;;;;;;;1.37;93.52;97922.50;29394;236;64009;-57
2022/11/27 02:45:08;;;;;;;1.12;1.12;;;;;;;1.40;93.64;97917.53;29373;257;63005;-72
2022/11/27 02:45:43;;;;;;;0.57;0.57;;;;;;;1.44;93.54;97910.72;29373;326;63015;-58
2022/11/27 02:46:17;;;;;;;0.60;0.60;;;;;;;1.48;93.47;97914.63;29373;294;63005;-59
2022/11/27 02:46:49;;;;;;;0.65;0.65;;;;;;;1.49;93.19;97912.78;29373;220;63009;-57
2022/11/27 02:47:22;;;;;;;0.70;0.70;;;;;;;1.49;93.00;97918.13;29373;285;63005;-58
2022/11/27 02:47:56;;;;;;;1.27;1.27;;;;;;;1.45;92.92;97911.53;29373;365;63009;-57
2022/11/27 02:48:33;;;;;;;0.60;0.60;;;;;;;1.46;93.05;97915.88;29373;231;63004;-57
2022/11/27 02:49:08;;;;;;;0.62;0.62;;;;;;;1.46;92.72;97914.00;29373;315;63016;-57
2022/11/27 02:49:44;;;;;;;0.60;0.60;;;;;;;1.45;92.93;97922.25;29371;205;64009;-57
2022/11/27 02:50:23;;;;;;;0.68;0.68;;;;;;;1.46;92.81;97915.88;29373;199;63009;-57
2022/11/27 02:50:55;;;;;;;0.70;0.70;;;;;;;1.45;92.91;97925.75;29373;239;63004;-58
2022/11/27 02:51:36;;;;;;;1.00;1.00;;;;;;;1.48;93.07;97916.47;29373;233;63013;-58
2022/11/27 02:52:10;;;;;;;0.60;0.60;;;;;;;1.45;93.08;97912.37;29395;230;63005;-60
2022/11/27 02:52:44;;;;;;;0.70;0.70;;;;;;;1.49;92.94;97912.78;29395;273;63009;-57
2022/11/27 02:53:50;;;;;;;2.55;2.45;;;;;;;1.49;92.76;97910.09;29373;281;63005;-58
2022/11/27 02:54:27;;;;;;;0.60;0.60;;;;;;;1.50;92.59;97909.88;29373;311;63009;-57